sensor_id;sensor_type;location;lat;lon;timestamp;pressure;altitude;pressure_sealevel;temperature;humidity
76052;BME280;64751;48.708;9.710;2023-02-11T00:01:27;99620.31;;;-4.98;79.31
76052;BME280;64751;48.708;9.710;2023-02-11T00:03:58;99602.75;;;-5.04;79.32
76052;BME280;64751;48.708;9.710;2023-02-11T00:06:28;99616.66;;;-4.95;79.10
76052;BME280;64751;48.708;9.710;2023-02-11T00:08:56;99607.22;;;-5.06;78.92
76052;BME280;64751;48.708;9.710;2023-02-11T00:11:24;99627.94;;;-4.87;79.17
76052;BME280;64751;48.708;9.710;2023-02-11T00:13:56;99619.63;;;-4.90;79.48
76052;BME280;64751;48.708;9.710;2023-02-11T00:16:24;99609.41;;;-5.01;79.32
76052;BME280;64751;48.708;9.710;2023-02-11T00:18:52;99603.81;;;-5.06;79.14
76052;BME280;64751;48.708;9.710;2023-02-11T00:21:24;99601.63;;;-5.11;79.14
76052;BME280;64751;48.708;9.710;2023-02-11T00:23:52;99609.25;;;-5.09;79.00
76052;BME280;64751;48.708;9.710;2023-02-11T00:26:25;99588.41;;;-5.27;79.07
76052;BME280;64751;48.708;9.710;2023-02-11T00:28:53;99589.53;;;-5.20;79.00
76052;BME280;64751;48.708;9.710;2023-02-11T00:31:22;99596.69;;;-5.24;79.10
76052;BME280;64751;48.708;9.710;2023-02-11T00:33:51;99612.19;;;-5.14;79.38
76052;BME280;64751;48.708;9.710;2023-02-11T00:36:22;99581.16;;;-5.33;78.83
76052;BME280;64751;48.708;9.710;2023-02-11T00:38:52;99576.38;;;-5.38;78.69
76052;BME280;64751;48.708;9.710;2023-02-11T00:41:20;99573.56;;;-5.35;79.21
76052;BME280;64751;48.708;9.710;2023-02-11T00:43:49;99594.56;;;-5.19;78.72
76052;BME280;64751;48.708;9.710;2023-02-11T00:46:20;99591.28;;;-5.21;78.66
76052;BME280;64751;48.708;9.710;2023-02-11T00:48:49;99588.81;;;-5.22;78.52
76052;BME280;64751;48.708;9.710;2023-02-11T00:51:22;99586.97;;;-5.20;79.46
76052;BME280;64751;48.708;9.710;2023-02-11T00:53:50;99611.00;;;-5.10;79.94
76052;BME280;64751;48.708;9.710;2023-02-11T00:56:18;99572.88;;;-5.37;79.38
76052;BME280;64751;48.708;9.710;2023-02-11T00:58:46;99576.28;;;-5.36;79.51
76052;BME280;64751;48.708;9.710;2023-02-11T01:01:14;99597.25;;;-5.20;79.63
76052;BME280;64751;48.708;9.710;2023-02-11T01:03:42;99579.72;;;-5.26;79.43
76052;BME280;64751;48.708;9.710;2023-02-11T01:06:11;99610.84;;;-5.08;78.95
76052;BME280;64751;48.708;9.710;2023-02-11T01:08:41;99604.66;;;-5.06;79.27
76052;BME280;64751;48.708;9.710;2023-02-11T01:11:16;99564.09;;;-5.34;79.05
76052;BME280;64751;48.708;9.710;2023-02-11T01:13:45;99581.09;;;-5.22;78.94
76052;BME280;64751;48.708;9.710;2023-02-11T01:16:18;99577.16;;;-5.26;78.89
76052;BME280;64751;48.708;9.710;2023-02-11T01:18:49;99570.75;;;-5.32;78.59
76052;BME280;64751;48.708;9.710;2023-02-11T01:21:17;99542.75;;;-5.46;78.93
76052;BME280;64751;48.708;9.710;2023-02-11T01:23:51;99504.47;;;-5.60;79.18
76052;BME280;64751;48.708;9.710;2023-02-11T01:26:19;99541.88;;;-5.35;79.35
76052;BME280;64751;48.708;9.710;2023-02-11T01:28:47;99542.13;;;-5.38;79.42
76052;BME280;64751;48.708;9.710;2023-02-11T01:31:15;99513.19;;;-5.51;79.10
76052;BME280;64751;48.708;9.710;2023-02-11T01:33:43;99524.88;;;-5.47;78.81
76052;BME280;64751;48.708;9.710;2023-02-11T01:36:11;99542.00;;;-5.37;79.34
76052;BME280;64751;48.708;9.710;2023-02-11T01:38:43;99554.81;;;-5.26;79.21
76052;BME280;64751;48.708;9.710;2023-02-11T01:41:14;99540.66;;;-5.31;79.47
76052;BME280;64751;48.708;9.710;2023-02-11T01:43:44;99491.59;;;-5.60;79.32
76052;BME280;64751;48.708;9.710;2023-02-11T01:46:25;99529.66;;;-5.43;78.97
76052;BME280;64751;48.708;9.710;2023-02-11T01:48:57;99499.69;;;-5.64;78.70
76052;BME280;64751;48.708;9.710;2023-02-11T01:51:30;99530.56;;;-5.44;78.66
76052;BME280;64751;48.708;9.710;2023-02-11T01:54:03;99515.66;;;-5.50;79.01
76052;BME280;64751;48.708;9.710;2023-02-11T01:56:52;99527.06;;;-5.43;79.44
76052;BME280;64751;48.708;9.710;2023-02-11T01:59:46;99520.66;;;-5.48;79.43
76052;BME280;64751;48.708;9.710;2023-02-11T02:02:18;99530.13;;;-5.49;78.96
76052;BME280;64751;48.708;9.710;2023-02-11T02:04:52;99541.00;;;-5.45;79.10
76052;BME280;64751;48.708;9.710;2023-02-11T02:07:28;99548.75;;;-5.36;79.12
76052;BME280;64751;48.708;9.710;2023-02-11T02:10:03;99495.75;;;-5.68;79.04
76052;BME280;64751;48.708;9.710;2023-02-11T02:12:34;99518.47;;;-5.53;79.37
76052;BME280;64751;48.708;9.710;2023-02-11T02:15:26;99527.47;;;-5.47;79.01
76052;BME280;64751;48.708;9.710;2023-02-11T02:18:02;99530.97;;;-5.48;79.15
76052;BME280;64751;48.708;9.710;2023-02-11T02:21:09;99506.50;;;-5.63;79.56
76052;BME280;64751;48.708;9.710;2023-02-11T02:23:57;99495.00;;;-5.59;79.65
76052;BME280;64751;48.708;9.710;2023-02-11T02:26:59;99512.94;;;-5.48;79.75
76052;BME280;64751;48.708;9.710;2023-02-11T02:29:53;99515.13;;;-5.44;79.84
76052;BME280;64751;48.708;9.710;2023-02-11T02:32:39;99541.31;;;-5.18;79.92
76052;BME280;64751;48.708;9.710;2023-02-11T02:35:16;99507.19;;;-5.31;80.41
76052;BME280;64751;48.708;9.710;2023-02-11T02:37:54;99525.72;;;-5.17;80.53
76052;BME280;64751;48.708;9.710;2023-02-11T02:40:28;99512.78;;;-5.26;80.53
76052;BME280;64751;48.708;9.710;2023-02-11T02:42:58;99489.31;;;-5.33;81.00
76052;BME280;64751;48.708;9.710;2023-02-11T02:45:28;99531.72;;;-5.06;81.03
76052;BME280;64751;48.708;9.710;2023-02-11T02:48:00;99492.09;;;-5.25;80.70
76052;BME280;64751;48.708;9.710;2023-02-11T02:50:35;99508.81;;;-5.09;80.25
76052;BME280;64751;48.708;9.710;2023-02-11T02:53:13;99467.13;;;-5.34;80.57
76052;BME280;64751;48.708;9.710;2023-02-11T02:55:51;99490.75;;;-5.19;79.38
76052;BME280;64751;48.708;9.710;2023-02-11T02:58:47;99468.22;;;-5.27;79.94
76052;BME280;64751;48.708;9.710;2023-02-11T03:01:27;99480.97;;;-5.25;79.82
76052;BME280;64751;48.708;9.710;2023-02-11T03:04:05;99501.63;;;-5.16;79.86
76052;BME280;64751;48.708;9.710;2023-02-11T03:06:43;99492.00;;;-5.13;80.13
76052;BME280;64751;48.708;9.710;2023-02-11T03:09:15;99448.81;;;-5.31;80.38
76052;BME280;64751;48.708;9.710;2023-02-11T03:11:47;99499.25;;;-4.98;80.62
76052;BME280;64751;48.708;9.710;2023-02-11T03:14:17;99449.00;;;-5.23;80.42
76052;BME280;64751;48.708;9.710;2023-02-11T03:16:47;99459.47;;;-5.15;80.55
76052;BME280;64751;48.708;9.710;2023-02-11T03:19:20;99477.13;;;-5.00;80.50
76052;BME280;64751;48.708;9.710;2023-02-11T03:21:50;99471.84;;;-4.99;80.69
76052;BME280;64751;48.708;9.710;2023-02-11T03:24:23;99487.78;;;-4.84;80.82
76052;BME280;64751;48.708;9.710;2023-02-11T03:26:54;99453.94;;;-5.10;80.86
76052;BME280;64751;48.708;9.710;2023-02-11T03:29:30;99439.28;;;-5.09;81.00
76052;BME280;64751;48.708;9.710;2023-02-11T03:32:05;99453.44;;;-4.94;81.43
76052;BME280;64751;48.708;9.710;2023-02-11T03:34:43;99483.88;;;-4.69;81.62
76052;BME280;64751;48.708;9.710;2023-02-11T03:37:17;99455.63;;;-4.90;81.32
76052;BME280;64751;48.708;9.710;2023-02-11T03:39:50;99441.63;;;-4.97;81.86
76052;BME280;64751;48.708;9.710;2023-02-11T03:42:20;99473.44;;;-4.68;81.67
76052;BME280;64751;48.708;9.710;2023-02-11T03:44:54;99487.41;;;-4.61;81.74
76052;BME280;64751;48.708;9.710;2023-02-11T03:47:25;99478.47;;;-4.57;81.30
76052;BME280;64751;48.708;9.710;2023-02-11T03:49:56;99496.13;;;-4.43;82.09
76052;BME280;64751;48.708;9.710;2023-02-11T03:52:27;99461.66;;;-4.61;82.00
76052;BME280;64751;48.708;9.710;2023-02-11T03:54:57;99465.44;;;-4.65;81.87
76052;BME280;64751;48.708;9.710;2023-02-11T03:57:28;99463.56;;;-4.53;81.87
76052;BME280;64751;48.708;9.710;2023-02-11T03:59:57;99448.75;;;-4.61;82.12
76052;BME280;64751;48.708;9.710;2023-02-11T04:02:28;99498.34;;;-4.28;82.58
76052;BME280;64751;48.708;9.710;2023-02-11T04:05:00;99484.88;;;-4.32;82.36
76052;BME280;64751;48.708;9.710;2023-02-11T04:07:28;99517.63;;;-4.13;82.41
76052;BME280;64751;48.708;9.710;2023-02-11T04:10:02;99479.72;;;-4.32;82.16
76052;BME280;64751;48.708;9.710;2023-02-11T04:12:31;99463.31;;;-4.41;82.65
76052;BME280;64751;48.708;9.710;2023-02-11T04:14:59;99500.78;;;-4.17;82.87
76052;BME280;64751;48.708;9.710;2023-02-11T04:17:27;99495.88;;;-4.20;82.99
76052;BME280;64751;48.708;9.710;2023-02-11T04:19:56;99496.72;;;-4.20;83.32
76052;BME280;64751;48.708;9.710;2023-02-11T04:22:25;99478.91;;;-4.23;83.19
76052;BME280;64751;48.708;9.710;2023-02-11T04:24:54;99486.50;;;-4.21;83.52
76052;BME280;64751;48.708;9.710;2023-02-11T04:27:21;99489.94;;;-4.11;83.09
76052;BME280;64751;48.708;9.710;2023-02-11T04:29:52;99494.53;;;-4.05;83.86
76052;BME280;64751;48.708;9.710;2023-02-11T04:32:19;99474.44;;;-4.11;83.43
76052;BME280;64751;48.708;9.710;2023-02-11T04:34:47;99482.03;;;-4.00;83.42
76052;BME280;64751;48.708;9.710;2023-02-11T04:37:15;99500.38;;;-3.84;84.01
76052;BME280;64751;48.708;9.710;2023-02-11T04:39:45;99509.47;;;-3.71;83.88
76052;BME280;64751;48.708;9.710;2023-02-11T04:42:13;99474.72;;;-3.95;83.88
76052;BME280;64751;48.708;9.710;2023-02-11T04:44:41;99489.09;;;-3.83;83.80
76052;BME280;64751;48.708;9.710;2023-02-11T04:47:09;99489.91;;;-3.83;83.18
76052;BME280;64751;48.708;9.710;2023-02-11T04:49:39;99513.50;;;-3.58;83.64
76052;BME280;64751;48.708;9.710;2023-02-11T04:52:08;99489.75;;;-3.72;83.57
76052;BME280;64751;48.708;9.710;2023-02-11T04:54:35;99488.16;;;-3.73;83.98
76052;BME280;64751;48.708;9.710;2023-02-11T04:57:04;99480.94;;;-3.69;83.57
76052;BME280;64751;48.708;9.710;2023-02-11T04:59:32;99477.25;;;-3.67;83.85
76052;BME280;64751;48.708;9.710;2023-02-11T05:02:00;99456.22;;;-3.72;83.66
76052;BME280;64751;48.708;9.710;2023-02-11T05:04:29;99505.47;;;-3.36;83.29
76052;BME280;64751;48.708;9.710;2023-02-11T05:06:59;99482.53;;;-3.49;83.86
76052;BME280;64751;48.708;9.710;2023-02-11T05:09:27;99477.91;;;-3.45;84.05
76052;BME280;64751;48.708;9.710;2023-02-11T05:11:54;99443.69;;;-3.57;83.76
76052;BME280;64751;48.708;9.710;2023-02-11T05:14:24;99479.09;;;-3.40;82.95
76052;BME280;64751;48.708;9.710;2023-02-11T05:16:52;99446.28;;;-3.57;83.44
76052;BME280;64751;48.708;9.710;2023-02-11T05:19:20;99443.41;;;-3.54;83.93
76052;BME280;64751;48.708;9.710;2023-02-11T05:21:48;99473.25;;;-3.32;83.75
76052;BME280;64751;48.708;9.710;2023-02-11T05:24:16;99453.97;;;-3.38;83.76
76052;BME280;64751;48.708;9.710;2023-02-11T05:26:44;99435.59;;;-3.35;82.70
76052;BME280;64751;48.708;9.710;2023-02-11T05:29:12;99414.16;;;-3.45;82.01
76052;BME280;64751;48.708;9.710;2023-02-11T05:31:41;99442.78;;;-3.29;82.63
76052;BME280;64751;48.708;9.710;2023-02-11T05:34:09;99448.50;;;-3.25;83.06
76052;BME280;64751;48.708;9.710;2023-02-11T05:36:37;99428.53;;;-3.33;83.45
76052;BME280;64751;48.708;9.710;2023-02-11T05:39:05;99424.47;;;-3.35;83.25
76052;BME280;64751;48.708;9.710;2023-02-11T05:41:35;99388.25;;;-3.53;83.52
76052;BME280;64751;48.708;9.710;2023-02-11T05:44:03;99388.25;;;-3.53;83.90
76052;BME280;64751;48.708;9.710;2023-02-11T05:56:40;99427.50;;;-3.13;83.66
76052;BME280;64751;48.708;9.710;2023-02-11T05:59:08;99417.06;;;-3.21;83.73
76052;BME280;64751;48.708;9.710;2023-02-11T06:20:11;99438.03;;;-2.97;84.55
76052;BME280;64751;48.708;9.710;2023-02-11T06:31:58;99414.38;;;-3.02;83.48
76052;BME280;64751;48.708;9.710;2023-02-11T06:38:54;99435.06;;;-3.02;84.34
76052;BME280;64751;48.708;9.710;2023-02-11T06:41:22;99458.38;;;-2.94;84.01
76052;BME280;64751;48.708;9.710;2023-02-11T06:43:51;99458.13;;;-2.90;83.50
76052;BME280;64751;48.708;9.710;2023-02-11T06:46:20;99474.75;;;-2.75;83.67
76052;BME280;64751;48.708;9.710;2023-02-11T06:48:48;99451.63;;;-2.95;83.30
76052;BME280;64751;48.708;9.710;2023-02-11T06:51:16;99448.44;;;-2.88;83.07
76052;BME280;64751;48.708;9.710;2023-02-11T06:53:45;99443.00;;;-2.85;82.98
76052;BME280;64751;48.708;9.710;2023-02-11T06:56:18;99432.00;;;-2.87;82.59
76052;BME280;64751;48.708;9.710;2023-02-11T07:53:04;99489.28;;;-2.20;81.86
76052;BME280;64751;48.708;9.710;2023-02-11T08:04:54;99480.84;;;-1.87;80.05
76052;BME280;64751;48.708;9.710;2023-02-11T08:07:24;99463.81;;;-1.89;79.96
76052;BME280;64751;48.708;9.710;2023-02-11T08:09:56;99439.66;;;-1.98;78.98
76052;BME280;64751;48.708;9.710;2023-02-11T08:12:24;99465.06;;;-1.76;78.81
76052;BME280;64751;48.708;9.710;2023-02-11T08:14:51;99476.13;;;-1.66;78.99
76052;BME280;64751;48.708;9.710;2023-02-11T08:17:19;99484.78;;;-1.57;78.50
76052;BME280;64751;48.708;9.710;2023-02-11T08:19:47;99472.84;;;-1.50;78.40
76052;BME280;64751;48.708;9.710;2023-02-11T08:22:15;99445.41;;;-1.61;77.94
76052;BME280;64751;48.708;9.710;2023-02-11T08:24:43;99473.75;;;-1.33;78.45
76052;BME280;64751;48.708;9.710;2023-02-11T08:27:13;99463.19;;;-1.40;78.53
76052;BME280;64751;48.708;9.710;2023-02-11T08:29:41;99440.63;;;-1.48;78.21
76052;BME280;64751;48.708;9.710;2023-02-11T08:32:09;99463.13;;;-1.22;78.66
76052;BME280;64751;48.708;9.710;2023-02-11T08:34:36;99441.91;;;-1.26;78.19
76052;BME280;64751;48.708;9.710;2023-02-11T08:37:04;99490.53;;;-0.86;78.37
76052;BME280;64751;48.708;9.710;2023-02-11T08:39:34;99447.31;;;-1.11;78.30
76052;BME280;64751;48.708;9.710;2023-02-11T08:42:02;99493.78;;;-0.84;76.38
76052;BME280;64751;48.708;9.710;2023-02-11T08:44:32;99446.19;;;-1.09;76.57
76052;BME280;64751;48.708;9.710;2023-02-11T08:47:00;99427.88;;;-1.07;75.00
76052;BME280;64751;48.708;9.710;2023-02-11T08:49:28;99476.81;;;-0.70;73.49
76052;BME280;64751;48.708;9.710;2023-02-11T08:51:59;99488.38;;;-0.57;73.31
76052;BME280;64751;48.708;9.710;2023-02-11T08:54:30;99443.28;;;-0.72;72.83
76052;BME280;64751;48.708;9.710;2023-02-11T08:56:58;99469.44;;;-0.49;72.39
76052;BME280;64751;48.708;9.710;2023-02-11T08:59:29;99430.31;;;-0.64;72.97
76052;BME280;64751;48.708;9.710;2023-02-11T09:02:04;99448.69;;;-0.49;73.26
76052;BME280;64751;48.708;9.710;2023-02-11T09:04:36;99445.78;;;-0.38;72.85
76052;BME280;64751;48.708;9.710;2023-02-11T09:11:26;99440.13;;;-0.02;71.09
76052;BME280;64751;48.708;9.710;2023-02-11T09:13:55;99438.34;;;0.07;71.07
76052;BME280;64751;48.708;9.710;2023-02-11T09:16:26;99432.34;;;0.15;69.57
76052;BME280;64751;48.708;9.710;2023-02-11T09:18:57;99438.84;;;0.27;70.15
76052;BME280;64751;48.708;9.710;2023-02-11T09:21:28;99410.28;;;0.11;70.27
76052;BME280;64751;48.708;9.710;2023-02-11T09:24:00;99455.06;;;0.45;70.17
76052;BME280;64751;48.708;9.710;2023-02-11T09:26:29;99455.69;;;0.55;69.99
76052;BME280;64751;48.708;9.710;2023-02-11T09:29:01;99413.16;;;0.40;68.51
76052;BME280;64751;48.708;9.710;2023-02-11T09:31:41;99429.38;;;0.50;69.57
76052;BME280;64751;48.708;9.710;2023-02-11T09:34:12;99399.19;;;0.25;69.54
76052;BME280;64751;48.708;9.710;2023-02-11T09:36:44;99424.88;;;0.36;70.03
76052;BME280;64751;48.708;9.710;2023-02-11T09:39:24;99411.25;;;0.18;70.04
76052;BME280;64751;48.708;9.710;2023-02-11T09:49:57;99445.66;;;0.36;70.44
76052;BME280;64751;48.708;9.710;2023-02-11T09:54:02;99422.91;;;0.22;69.71
76052;BME280;64751;48.708;9.710;2023-02-11T09:56:34;99402.16;;;0.06;69.18
76052;BME280;64751;48.708;9.710;2023-02-11T09:59:05;99438.84;;;0.27;69.55
76052;BME280;64751;48.708;9.710;2023-02-11T10:10:49;99462.31;;;0.65;71.22
76052;BME280;64751;48.708;9.710;2023-02-11T10:22:41;99430.53;;;0.94;69.97
76052;BME280;64751;48.708;9.710;2023-02-11T10:25:19;99450.31;;;1.11;70.20
76052;BME280;64751;48.708;9.710;2023-02-11T10:27:54;99435.69;;;1.10;70.07
76052;BME280;64751;48.708;9.710;2023-02-11T10:30:27;99456.09;;;1.29;69.68
76052;BME280;64751;48.708;9.710;2023-02-11T10:33:03;99446.19;;;1.25;69.99
76052;BME280;64751;48.708;9.710;2023-02-11T10:35:33;99446.50;;;1.30;70.19
76052;BME280;64751;48.708;9.710;2023-02-11T10:38:02;99461.88;;;1.39;69.45
76052;BME280;64751;48.708;9.710;2023-02-11T10:40:30;99441.75;;;1.33;70.13
76052;BME280;64751;48.708;9.710;2023-02-11T10:43:03;99461.50;;;1.51;70.08
76052;BME280;64751;48.708;9.710;2023-02-11T10:45:33;99450.75;;;1.54;70.57
76052;BME280;64751;48.708;9.710;2023-02-11T10:48:06;99417.69;;;1.31;70.13
76052;BME280;64751;48.708;9.710;2023-02-11T10:51:06;99423.34;;;1.35;69.77
76052;BME280;64751;48.708;9.710;2023-02-11T10:53:34;99418.41;;;1.25;70.46
76052;BME280;64751;48.708;9.710;2023-02-11T10:56:04;99425.06;;;1.51;70.97
76052;BME280;64751;48.708;9.710;2023-02-11T10:58:40;99409.16;;;1.45;70.89
76052;BME280;64751;48.708;9.710;2023-02-11T11:01:13;99436.38;;;1.66;70.83
76052;BME280;64751;48.708;9.710;2023-02-11T11:03:46;99411.81;;;1.60;70.93
76052;BME280;64751;48.708;9.710;2023-02-11T11:06:14;99438.47;;;1.70;70.16
76052;BME280;64751;48.708;9.710;2023-02-11T11:08:45;99406.16;;;1.57;71.05
76052;BME280;64751;48.708;9.710;2023-02-11T11:11:16;99404.84;;;1.61;70.25
76052;BME280;64751;48.708;9.710;2023-02-11T11:13:56;99404.94;;;1.67;69.79
76052;BME280;64751;48.708;9.710;2023-02-11T11:16:26;99392.44;;;1.63;70.82
76052;BME280;64751;48.708;9.710;2023-02-11T11:19:18;99392.75;;;1.68;70.74
76052;BME280;64751;48.708;9.710;2023-02-11T11:21:50;99370.28;;;1.67;70.42
76052;BME280;64751;48.708;9.710;2023-02-11T11:24:25;99394.56;;;1.82;70.43
76052;BME280;64751;48.708;9.710;2023-02-11T11:27:23;99358.28;;;1.66;70.02
76052;BME280;64751;48.708;9.710;2023-02-11T12:31:41;99397.63;;;3.60;66.27
76052;BME280;64751;48.708;9.710;2023-02-11T12:37:15;99389.72;;;3.96;65.70
76052;BME280;64751;48.708;9.710;2023-02-11T12:39:49;99384.59;;;4.09;65.58
76052;BME280;64751;48.708;9.710;2023-02-11T12:42:32;99387.06;;;4.17;65.35
76052;BME280;64751;48.708;9.710;2023-02-11T12:45:30;99374.66;;;4.26;65.86
76052;BME280;64751;48.708;9.710;2023-02-11T12:48:21;99371.91;;;4.34;64.86
76052;BME280;64751;48.708;9.710;2023-02-11T12:50:56;99374.81;;;4.46;65.37
76052;BME280;64751;48.708;9.710;2023-02-11T12:53:40;99368.00;;;4.51;63.90
76052;BME280;64751;48.708;9.710;2023-02-11T12:56:17;99363.56;;;4.52;64.68
76052;BME280;64751;48.708;9.710;2023-02-11T12:58:49;99353.94;;;4.52;64.48
76052;BME280;64751;48.708;9.710;2023-02-11T13:01:22;99355.56;;;4.60;64.86
76052;BME280;64751;48.708;9.710;2023-02-11T13:03:57;99359.81;;;4.61;64.81
76052;BME280;64751;48.708;9.710;2023-02-11T13:06:32;99356.81;;;4.64;64.35
76052;BME280;64751;48.708;9.710;2023-02-11T13:09:03;99348.34;;;4.62;64.22
76052;BME280;64751;48.708;9.710;2023-02-11T13:11:38;99363.06;;;4.69;63.38
76052;BME280;64751;48.708;9.710;2023-02-11T13:14:12;99342.72;;;4.65;63.67
76052;BME280;64751;48.708;9.710;2023-02-11T13:16:44;99350.00;;;4.76;63.04
76052;BME280;64751;48.708;9.710;2023-02-11T13:19:18;99346.63;;;4.82;63.54
76052;BME280;64751;48.708;9.710;2023-02-11T13:21:59;99354.50;;;4.82;63.62
76052;BME280;64751;48.708;9.710;2023-02-11T13:24:35;99350.84;;;4.83;63.89
76052;BME280;64751;48.708;9.710;2023-02-11T13:27:14;99348.63;;;4.80;64.25
76052;BME280;64751;48.708;9.710;2023-02-11T13:30:25;99345.22;;;4.79;62.95
76052;BME280;64751;48.708;9.710;2023-02-11T13:35:44;99334.75;;;4.79;63.51
76052;BME280;64751;48.708;9.710;2023-02-11T13:38:19;99330.50;;;4.78;63.53
76052;BME280;64751;48.708;9.710;2023-02-11T13:41:01;99323.09;;;4.82;63.21
76052;BME280;64751;48.708;9.710;2023-02-11T13:43:31;99335.00;;;4.91;62.52
76052;BME280;64751;48.708;9.710;2023-02-11T13:46:10;99340.03;;;4.92;64.30
76052;BME280;64751;48.708;9.710;2023-02-11T13:48:44;99340.03;;;4.92;64.35
76052;BME280;64751;48.708;9.710;2023-02-11T13:51:16;99307.75;;;4.79;64.50
76052;BME280;64751;48.708;9.710;2023-02-11T13:53:47;99317.44;;;4.85;63.83
76052;BME280;64751;48.708;9.710;2023-02-11T13:56:26;99316.44;;;4.86;65.43
76052;BME280;64751;48.708;9.710;2023-02-11T13:58:55;99318.47;;;4.90;65.52
76052;BME280;64751;48.708;9.710;2023-02-11T14:01:41;99330.38;;;4.93;66.54
76052;BME280;64751;48.708;9.710;2023-02-11T14:05:11;99331.81;;;5.02;65.71
76052;BME280;64751;48.708;9.710;2023-02-11T14:08:28;99322.13;;;5.02;65.44
76052;BME280;64751;48.708;9.710;2023-02-11T14:11:42;99302.56;;;4.92;65.66
76052;BME280;64751;48.708;9.710;2023-02-11T14:14:18;99324.56;;;5.04;65.95
76052;BME280;64751;48.708;9.710;2023-02-11T14:17:26;99334.22;;;5.03;65.97
76052;BME280;64751;48.708;9.710;2023-02-11T14:19:56;99334.22;;;5.03;66.42
76052;BME280;64751;48.708;9.710;2023-02-11T14:22:28;99328.78;;;5.05;67.11
76052;BME280;64751;48.708;9.710;2023-02-11T14:25:00;99326.00;;;5.06;66.90
76052;BME280;64751;48.708;9.710;2023-02-11T14:27:35;99326.41;;;5.10;67.13
76052;BME280;64751;48.708;9.710;2023-02-11T14:30:17;99321.94;;;5.04;66.89
76052;BME280;64751;48.708;9.710;2023-02-11T14:33:08;99328.41;;;5.14;67.50
76052;BME280;64751;48.708;9.710;2023-02-11T14:35:47;99326.00;;;5.13;66.72
76052;BME280;64751;48.708;9.710;2023-02-11T14:38:27;99330.63;;;5.11;67.10
76052;BME280;64751;48.708;9.710;2023-02-11T14:41:06;99325.94;;;5.00;66.89
76052;BME280;64751;48.708;9.710;2023-02-11T14:43:39;99327.94;;;4.98;67.00
76052;BME280;64751;48.708;9.710;2023-02-11T14:46:08;99317.47;;;4.91;66.42
76052;BME280;64751;48.708;9.710;2023-02-11T14:48:38;99316.25;;;4.87;66.34
76052;BME280;64751;48.708;9.710;2023-02-11T14:51:13;99313.84;;;4.86;66.66
76052;BME280;64751;48.708;9.710;2023-02-11T14:53:45;99328.38;;;4.95;67.23
76052;BME280;64751;48.708;9.710;2023-02-11T14:56:17;99320.69;;;4.93;67.75
76052;BME280;64751;48.708;9.710;2023-02-11T14:58:46;99321.69;;;4.92;67.23
76052;BME280;64751;48.708;9.710;2023-02-11T15:01:27;99330.16;;;4.88;67.51
76052;BME280;64751;48.708;9.710;2023-02-11T15:03:55;99337.38;;;4.86;67.39
76052;BME280;64751;48.708;9.710;2023-02-11T15:06:27;99343.22;;;4.88;68.30
76052;BME280;64751;48.708;9.710;2023-02-11T15:08:57;99331.53;;;4.84;68.04
76052;BME280;64751;48.708;9.710;2023-02-11T15:11:30;99332.91;;;4.80;67.37
76052;BME280;64751;48.708;9.710;2023-02-11T15:14:07;99324.41;;;4.71;67.87
76052;BME280;64751;48.708;9.710;2023-02-11T15:16:40;99328.84;;;4.71;68.14
76052;BME280;64751;48.708;9.710;2023-02-11T15:19:18;99329.84;;;4.70;67.16
76052;BME280;64751;48.708;9.710;2023-02-11T15:21:47;99337.91;;;4.68;67.54
76052;BME280;64751;48.708;9.710;2023-02-11T15:24:27;99330.22;;;4.60;67.83
76052;BME280;64751;48.708;9.710;2023-02-11T15:27:02;99342.72;;;4.65;69.20
76052;BME280;64751;48.708;9.710;2023-02-11T15:29:34;99340.88;;;4.59;69.22
76052;BME280;64751;48.708;9.710;2023-02-11T15:32:11;99343.25;;;4.54;70.32
76052;BME280;64751;48.708;9.710;2023-02-11T15:34:39;99343.47;;;4.52;70.80
76052;BME280;64751;48.708;9.710;2023-02-11T15:37:12;99346.44;;;4.49;70.82
76052;BME280;64751;48.708;9.710;2023-02-11T15:39:41;99348.66;;;4.46;71.53
76052;BME280;64751;48.708;9.710;2023-02-11T15:42:25;99352.84;;;4.40;72.13
76052;BME280;64751;48.708;9.710;2023-02-11T15:45:19;99361.50;;;4.40;72.13
76052;BME280;64751;48.708;9.710;2023-02-11T15:47:52;99369.94;;;4.43;71.85
76052;BME280;64751;48.708;9.710;2023-02-11T15:50:22;99359.88;;;4.39;72.30
76052;BME280;64751;48.708;9.710;2023-02-11T15:52:51;99367.94;;;4.45;72.06
76052;BME280;64751;48.708;9.710;2023-02-11T15:55:20;99363.34;;;4.47;72.11
76052;BME280;64751;48.708;9.710;2023-02-11T15:57:52;99364.16;;;4.47;72.15
76052;BME280;64751;48.708;9.710;2023-02-11T16:00:23;99369.94;;;4.43;72.86
76052;BME280;64751;48.708;9.710;2023-02-11T16:02:52;99368.53;;;4.40;73.63
76052;BME280;64751;48.708;9.710;2023-02-11T16:05:26;99370.72;;;4.36;73.67
76052;BME280;64751;48.708;9.710;2023-02-11T16:08:11;99367.50;;;4.34;73.20
76052;BME280;64751;48.708;9.710;2023-02-11T16:10:39;99364.84;;;4.28;74.23
76052;BME280;64751;48.708;9.710;2023-02-11T16:13:22;99369.00;;;4.22;74.46
76052;BME280;64751;48.708;9.710;2023-02-11T16:15:51;99374.81;;;4.18;74.41
76052;BME280;64751;48.708;9.710;2023-02-11T16:18:31;99386.19;;;4.10;74.67
76052;BME280;64751;48.708;9.710;2023-02-11T16:20:59;99372.91;;;4.05;75.07
76052;BME280;64751;48.708;9.710;2023-02-11T16:23:30;99383.94;;;4.01;75.29
76052;BME280;64751;48.708;9.710;2023-02-11T16:26:01;99381.63;;;3.91;75.84
76052;BME280;64751;48.708;9.710;2023-02-11T16:28:36;99392.22;;;3.83;75.16
76052;BME280;64751;48.708;9.710;2023-02-11T16:31:04;99400.44;;;3.80;75.56
76052;BME280;64751;48.708;9.710;2023-02-11T16:33:32;99402.44;;;3.78;75.83
76052;BME280;64751;48.708;9.710;2023-02-11T16:36:09;99399.97;;;3.77;75.61
76052;BME280;64751;48.708;9.710;2023-02-11T16:38:38;99409.25;;;3.79;75.05
76052;BME280;64751;48.708;9.710;2023-02-11T16:41:07;99409.66;;;3.76;74.17
76052;BME280;64751;48.708;9.710;2023-02-11T16:43:38;99410.63;;;3.75;75.03
76052;BME280;64751;48.708;9.710;2023-02-11T16:46:06;99411.03;;;3.72;75.19
76052;BME280;64751;48.708;9.710;2023-02-11T16:48:34;99414.81;;;3.70;75.28
76052;BME280;64751;48.708;9.710;2023-02-11T16:51:02;99417.78;;;3.66;75.37
76052;BME280;64751;48.708;9.710;2023-02-11T16:53:30;99415.38;;;3.65;75.65
76052;BME280;64751;48.708;9.710;2023-02-11T16:55:58;99422.19;;;3.66;74.87
76052;BME280;64751;48.708;9.710;2023-02-11T16:58:26;99416.34;;;3.64;75.49
76052;BME280;64751;48.708;9.710;2023-02-11T17:00:55;99423.19;;;3.65;75.80
76052;BME280;64751;48.708;9.710;2023-02-11T17:03:25;99414.53;;;3.64;75.38